sensor_id;sensor_type;location;lat;lon;timestamp;P1;durP1;ratioP1;P2;durP2;ratioP2
47896;SDS011;39629;51.400;5.494;2023-02-15T00:01:16;30.38;;;12.55;;
47896;SDS011;39629;51.400;5.494;2023-02-15T00:06:19;22.95;;;10.85;;
47896;SDS011;39629;51.400;5.494;2023-02-15T00:11:21;30.35;;;12.18;;
47896;SDS011;39629;51.400;5.494;2023-02-15T00:16:37;27.30;;;11.48;;
47896;SDS011;39629;51.400;5.494;2023-02-15T00:21:40;31.42;;;12.77;;
47896;SDS011;39629;51.400;5.494;2023-02-15T00:26:42;27.92;;;11.50;;
47896;SDS011;39629;51.400;5.494;2023-02-15T00:31:44;28.45;;;11.70;;
47896;SDS011;39629;51.400;5.494;2023-02-15T00:36:48;26.80;;;11.23;;
47896;SDS011;39629;51.400;5.494;2023-02-15T00:41:50;30.30;;;11.73;;
47896;SDS011;39629;51.400;5.494;2023-02-15T00:46:51;29.42;;;11.77;;
47896;SDS011;39629;51.400;5.494;2023-02-15T00:51:55;29.33;;;11.75;;
47896;SDS011;39629;51.400;5.494;2023-02-15T00:56:57;41.30;;;15.32;;
47896;SDS011;39629;51.400;5.494;2023-02-15T01:01:59;30.75;;;12.52;;
47896;SDS011;39629;51.400;5.494;2023-02-15T01:07:02;31.70;;;12.65;;
47896;SDS011;39629;51.400;5.494;2023-02-15T01:12:07;25.77;;;11.07;;
47896;SDS011;39629;51.400;5.494;2023-02-15T01:17:08;30.95;;;12.48;;
47896;SDS011;39629;51.400;5.494;2023-02-15T01:22:11;28.80;;;12.15;;
47896;SDS011;39629;51.400;5.494;2023-02-15T01:27:13;32.33;;;12.45;;
47896;SDS011;39629;51.400;5.494;2023-02-15T01:32:15;32.35;;;13.20;;
47896;SDS011;39629;51.400;5.494;2023-02-15T01:37:18;30.08;;;12.75;;
47896;SDS011;39629;51.400;5.494;2023-02-15T01:42:20;30.70;;;12.00;;
47896;SDS011;39629;51.400;5.494;2023-02-15T01:47:23;29.88;;;12.55;;
47896;SDS011;39629;51.400;5.494;2023-02-15T01:52:34;27.80;;;11.63;;
47896;SDS011;39629;51.400;5.494;2023-02-15T01:57:41;32.17;;;12.75;;
47896;SDS011;39629;51.400;5.494;2023-02-15T02:02:44;29.55;;;12.40;;
47896;SDS011;39629;51.400;5.494;2023-02-15T02:07:52;35.38;;;13.85;;
47896;SDS011;39629;51.400;5.494;2023-02-15T02:12:58;26.40;;;11.95;;
47896;SDS011;39629;51.400;5.494;2023-02-15T02:18:07;28.50;;;11.18;;
47896;SDS011;39629;51.400;5.494;2023-02-15T02:23:42;30.08;;;12.25;;
47896;SDS011;39629;51.400;5.494;2023-02-15T02:29:03;27.27;;;11.45;;
47896;SDS011;39629;51.400;5.494;2023-02-15T02:34:27;30.08;;;11.43;;
47896;SDS011;39629;51.400;5.494;2023-02-15T02:39:33;23.15;;;10.25;;
47896;SDS011;39629;51.400;5.494;2023-02-15T02:44:44;29.33;;;12.35;;
47896;SDS011;39629;51.400;5.494;2023-02-15T02:49:51;26.25;;;10.25;;
47896;SDS011;39629;51.400;5.494;2023-02-15T02:54:54;31.10;;;11.85;;
47896;SDS011;39629;51.400;5.494;2023-02-15T02:59:56;29.00;;;11.50;;
47896;SDS011;39629;51.400;5.494;2023-02-15T03:05:03;29.65;;;11.52;;
47896;SDS011;39629;51.400;5.494;2023-02-15T03:10:09;29.75;;;11.63;;
47896;SDS011;39629;51.400;5.494;2023-02-15T03:15:12;31.30;;;12.05;;
47896;SDS011;39629;51.400;5.494;2023-02-15T03:20:20;30.95;;;12.02;;
47896;SDS011;39629;51.400;5.494;2023-02-15T03:25:26;26.83;;;11.00;;
47896;SDS011;39629;51.400;5.494;2023-02-15T03:30:32;27.17;;;11.02;;
47896;SDS011;39629;51.400;5.494;2023-02-15T03:35:39;25.38;;;11.20;;
47896;SDS011;39629;51.400;5.494;2023-02-15T03:40:47;25.83;;;10.52;;
47896;SDS011;39629;51.400;5.494;2023-02-15T03:46:08;28.48;;;12.18;;
47896;SDS011;39629;51.400;5.494;2023-02-15T03:51:18;29.83;;;11.40;;
47896;SDS011;39629;51.400;5.494;2023-02-15T03:56:35;25.33;;;11.32;;
47896;SDS011;39629;51.400;5.494;2023-02-15T04:01:38;26.92;;;10.73;;
47896;SDS011;39629;51.400;5.494;2023-02-15T04:07:02;26.17;;;11.18;;
47896;SDS011;39629;51.400;5.494;2023-02-15T04:12:05;23.27;;;9.82;;
47896;SDS011;39629;51.400;5.494;2023-02-15T04:17:06;26.92;;;11.02;;
47896;SDS011;39629;51.400;5.494;2023-02-15T04:22:10;28.58;;;11.07;;
47896;SDS011;39629;51.400;5.494;2023-02-15T04:27:29;27.02;;;11.27;;
47896;SDS011;39629;51.400;5.494;2023-02-15T04:32:30;24.63;;;10.40;;
47896;SDS011;39629;51.400;5.494;2023-02-15T04:37:34;20.92;;;8.88;;
47896;SDS011;39629;51.400;5.494;2023-02-15T04:42:35;27.13;;;9.90;;
47896;SDS011;39629;51.400;5.494;2023-02-15T04:47:37;21.63;;;8.80;;
47896;SDS011;39629;51.400;5.494;2023-02-15T04:52:40;21.52;;;8.98;;
47896;SDS011;39629;51.400;5.494;2023-02-15T04:57:41;16.65;;;8.02;;
47896;SDS011;39629;51.400;5.494;2023-02-15T05:02:43;20.95;;;9.32;;
47896;SDS011;39629;51.400;5.494;2023-02-15T05:07:46;20.15;;;9.20;;
47896;SDS011;39629;51.400;5.494;2023-02-15T05:12:47;24.08;;;9.55;;
47896;SDS011;39629;51.400;5.494;2023-02-15T05:17:49;22.27;;;9.50;;
47896;SDS011;39629;51.400;5.494;2023-02-15T05:22:54;23.27;;;9.93;;
47896;SDS011;39629;51.400;5.494;2023-02-15T05:27:55;24.60;;;10.70;;
47896;SDS011;39629;51.400;5.494;2023-02-15T05:33:14;27.50;;;10.30;;
47896;SDS011;39629;51.400;5.494;2023-02-15T05:38:17;31.38;;;11.27;;
47896;SDS011;39629;51.400;5.494;2023-02-15T05:43:19;26.25;;;10.93;;
47896;SDS011;39629;51.400;5.494;2023-02-15T05:48:23;24.27;;;10.43;;
47896;SDS011;39629;51.400;5.494;2023-02-15T05:53:28;22.63;;;9.93;;
47896;SDS011;39629;51.400;5.494;2023-02-15T05:58:31;22.52;;;9.85;;
47896;SDS011;39629;51.400;5.494;2023-02-15T06:03:34;23.70;;;10.27;;
47896;SDS011;39629;51.400;5.494;2023-02-15T06:08:37;25.00;;;10.00;;
47896;SDS011;39629;51.400;5.494;2023-02-15T06:13:39;23.92;;;9.55;;
47896;SDS011;39629;51.400;5.494;2023-02-15T06:18:41;25.85;;;10.68;;
47896;SDS011;39629;51.400;5.494;2023-02-15T06:23:44;26.60;;;9.88;;
47896;SDS011;39629;51.400;5.494;2023-02-15T06:28:45;27.27;;;10.75;;
47896;SDS011;39629;51.400;5.494;2023-02-15T06:33:47;29.00;;;11.20;;
47896;SDS011;39629;51.400;5.494;2023-02-15T06:38:50;29.88;;;10.98;;
47896;SDS011;39629;51.400;5.494;2023-02-15T06:43:52;28.05;;;11.00;;
47896;SDS011;39629;51.400;5.494;2023-02-15T06:48:53;30.38;;;11.18;;
47896;SDS011;39629;51.400;5.494;2023-02-15T06:53:56;20.67;;;9.73;;
47896;SDS011;39629;51.400;5.494;2023-02-15T06:58:58;24.15;;;10.35;;
47896;SDS011;39629;51.400;5.494;2023-02-15T07:03:59;30.00;;;11.20;;
47896;SDS011;39629;51.400;5.494;2023-02-15T07:09:02;24.70;;;10.25;;
47896;SDS011;39629;51.400;5.494;2023-02-15T07:14:04;28.87;;;10.90;;
47896;SDS011;39629;51.400;5.494;2023-02-15T07:19:06;25.52;;;10.23;;
47896;SDS011;39629;51.400;5.494;2023-02-15T07:24:09;27.70;;;10.98;;
47896;SDS011;39629;51.400;5.494;2023-02-15T07:29:11;28.75;;;11.20;;
47896;SDS011;39629;51.400;5.494;2023-02-15T07:34:12;29.85;;;11.60;;
47896;SDS011;39629;51.400;5.494;2023-02-15T07:39:15;33.35;;;11.93;;
47896;SDS011;39629;51.400;5.494;2023-02-15T07:44:17;32.60;;;11.82;;
47896;SDS011;39629;51.400;5.494;2023-02-15T07:49:19;33.97;;;13.20;;
47896;SDS011;39629;51.400;5.494;2023-02-15T07:54:22;38.78;;;13.15;;
47896;SDS011;39629;51.400;5.494;2023-02-15T07:59:23;41.20;;;15.52;;
47896;SDS011;39629;51.400;5.494;2023-02-15T08:04:25;31.55;;;12.43;;
47896;SDS011;39629;51.400;5.494;2023-02-15T08:09:28;37.42;;;14.18;;
47896;SDS011;39629;51.400;5.494;2023-02-15T08:14:30;43.47;;;16.55;;
47896;SDS011;39629;51.400;5.494;2023-02-15T08:19:32;46.42;;;16.85;;
47896;SDS011;39629;51.400;5.494;2023-02-15T08:24:39;59.85;;;20.67;;
47896;SDS011;39629;51.400;5.494;2023-02-15T08:29:41;51.05;;;19.33;;
47896;SDS011;39629;51.400;5.494;2023-02-15T08:34:43;54.17;;;18.77;;
47896;SDS011;39629;51.400;5.494;2023-02-15T08:39:46;77.35;;;26.50;;
47896;SDS011;39629;51.400;5.494;2023-02-15T08:44:47;80.57;;;27.05;;
47896;SDS011;39629;51.400;5.494;2023-02-15T08:49:51;85.03;;;28.63;;
47896;SDS011;39629;51.400;5.494;2023-02-15T08:54:54;75.43;;;26.52;;
47896;SDS011;39629;51.400;5.494;2023-02-15T08:59:56;69.93;;;26.55;;
47896;SDS011;39629;51.400;5.494;2023-02-15T09:04:57;64.38;;;24.17;;
47896;SDS011;39629;51.400;5.494;2023-02-15T09:10:00;59.97;;;23.15;;
47896;SDS011;39629;51.400;5.494;2023-02-15T09:15:02;57.00;;;23.25;;
47896;SDS011;39629;51.400;5.494;2023-02-15T09:20:05;54.67;;;22.00;;
47896;SDS011;39629;51.400;5.494;2023-02-15T09:25:09;47.60;;;19.80;;
47896;SDS011;39629;51.400;5.494;2023-02-15T09:30:13;44.88;;;18.65;;
47896;SDS011;39629;51.400;5.494;2023-02-15T09:35:15;40.08;;;17.98;;
47896;SDS011;39629;51.400;5.494;2023-02-15T09:40:18;42.35;;;17.50;;
47896;SDS011;39629;51.400;5.494;2023-02-15T09:45:23;45.72;;;18.00;;
47896;SDS011;39629;51.400;5.494;2023-02-15T09:50:31;41.20;;;17.83;;
47896;SDS011;39629;51.400;5.494;2023-02-15T09:55:46;42.38;;;17.30;;
47896;SDS011;39629;51.400;5.494;2023-02-15T10:00:57;37.92;;;14.93;;
47896;SDS011;39629;51.400;5.494;2023-02-15T10:06:12;41.95;;;17.05;;
47896;SDS011;39629;51.400;5.494;2023-02-15T10:11:27;40.10;;;16.40;;
47896;SDS011;39629;51.400;5.494;2023-02-15T10:16:42;24.63;;;11.50;;
47896;SDS011;39629;51.400;5.494;2023-02-15T10:21:58;35.60;;;16.05;;
47896;SDS011;39629;51.400;5.494;2023-02-15T10:32:20;38.33;;;15.85;;
47896;SDS011;39629;51.400;5.494;2023-02-15T10:37:37;35.20;;;15.32;;
47896;SDS011;39629;51.400;5.494;2023-02-15T10:42:58;32.47;;;15.48;;
47896;SDS011;39629;51.400;5.494;2023-02-15T10:48:16;32.47;;;14.30;;
47896;SDS011;39629;51.400;5.494;2023-02-15T10:59:09;32.10;;;14.45;;
47896;SDS011;39629;51.400;5.494;2023-02-15T11:04:36;32.47;;;13.88;;
47896;SDS011;39629;51.400;5.494;2023-02-15T11:09:44;28.65;;;12.68;;
47896;SDS011;39629;51.400;5.494;2023-02-15T11:14:52;27.77;;;11.35;;
47896;SDS011;39629;51.400;5.494;2023-02-15T11:20:02;30.77;;;13.10;;
47896;SDS011;39629;51.400;5.494;2023-02-15T11:25:17;29.20;;;12.90;;
47896;SDS011;39629;51.400;5.494;2023-02-15T11:30:23;28.23;;;12.35;;
47896;SDS011;39629;51.400;5.494;2023-02-15T11:35:27;29.85;;;12.20;;
47896;SDS011;39629;51.400;5.494;2023-02-15T11:40:33;26.92;;;11.65;;
47896;SDS011;39629;51.400;5.494;2023-02-15T11:45:41;23.40;;;11.35;;
47896;SDS011;39629;51.400;5.494;2023-02-15T11:50:45;28.80;;;11.32;;
47896;SDS011;39629;51.400;5.494;2023-02-15T11:55:48;24.95;;;10.82;;
47896;SDS011;39629;51.400;5.494;2023-02-15T12:00:52;26.47;;;10.50;;
47896;SDS011;39629;51.400;5.494;2023-02-15T12:05:58;24.80;;;10.15;;
47896;SDS011;39629;51.400;5.494;2023-02-15T12:11:05;24.15;;;10.10;;
47896;SDS011;39629;51.400;5.494;2023-02-15T12:16:13;23.60;;;10.18;;
47896;SDS011;39629;51.400;5.494;2023-02-15T12:21:15;23.77;;;9.93;;
47896;SDS011;39629;51.400;5.494;2023-02-15T12:26:27;21.67;;;10.20;;
47896;SDS011;39629;51.400;5.494;2023-02-15T12:31:35;24.55;;;10.57;;
47896;SDS011;39629;51.400;5.494;2023-02-15T12:36:40;21.67;;;9.80;;
47896;SDS011;39629;51.400;5.494;2023-02-15T12:41:46;22.48;;;10.10;;
47896;SDS011;39629;51.400;5.494;2023-02-15T12:47:00;24.00;;;9.98;;
47896;SDS011;39629;51.400;5.494;2023-02-15T12:52:04;23.48;;;10.15;;
47896;SDS011;39629;51.400;5.494;2023-02-15T13:02:34;22.67;;;10.43;;
47896;SDS011;39629;51.400;5.494;2023-02-15T13:07:44;21.25;;;9.82;;
47896;SDS011;39629;51.400;5.494;2023-02-15T13:12:49;22.10;;;9.48;;
47896;SDS011;39629;51.400;5.494;2023-02-15T13:17:56;23.13;;;10.13;;
47896;SDS011;39629;51.400;5.494;2023-02-15T13:23:00;25.88;;;10.10;;
47896;SDS011;39629;51.400;5.494;2023-02-15T13:28:05;21.67;;;10.00;;
47896;SDS011;39629;51.400;5.494;2023-02-15T13:33:11;21.50;;;8.90;;
47896;SDS011;39629;51.400;5.494;2023-02-15T13:38:22;24.30;;;9.48;;
47896;SDS011;39629;51.400;5.494;2023-02-15T13:43:45;20.23;;;9.50;;
47896;SDS011;39629;51.400;5.494;2023-02-15T13:48:59;21.63;;;9.30;;
47896;SDS011;39629;51.400;5.494;2023-02-15T13:59:57;23.15;;;10.20;;
47896;SDS011;39629;51.400;5.494;2023-02-15T14:05:23;21.63;;;9.57;;
47896;SDS011;39629;51.400;5.494;2023-02-15T14:10:37;22.35;;;10.32;;
47896;SDS011;39629;51.400;5.494;2023-02-15T14:15:45;20.35;;;9.98;;
47896;SDS011;39629;51.400;5.494;2023-02-15T14:20:54;22.63;;;9.70;;
47896;SDS011;39629;51.400;5.494;2023-02-15T14:26:06;22.58;;;9.70;;
47896;SDS011;39629;51.400;5.494;2023-02-15T14:31:15;22.30;;;10.68;;
47896;SDS011;39629;51.400;5.494;2023-02-15T14:36:30;23.53;;;11.23;;
47896;SDS011;39629;51.400;5.494;2023-02-15T14:41:35;23.33;;;11.32;;
47896;SDS011;39629;51.400;5.494;2023-02-15T14:46:45;22.35;;;11.00;;
47896;SDS011;39629;51.400;5.494;2023-02-15T14:52:01;24.52;;;11.30;;
47896;SDS011;39629;51.400;5.494;2023-02-15T15:02:43;27.30;;;13.00;;
47896;SDS011;39629;51.400;5.494;2023-02-15T15:07:49;25.45;;;12.75;;
47896;SDS011;39629;51.400;5.494;2023-02-15T15:12:54;24.00;;;11.48;;
47896;SDS011;39629;51.400;5.494;2023-02-15T15:18:00;24.77;;;12.10;;
47896;SDS011;39629;51.400;5.494;2023-02-15T15:28:54;26.73;;;12.48;;
47896;SDS011;39629;51.400;5.494;2023-02-15T15:50:52;26.90;;;13.95;;
47896;SDS011;39629;51.400;5.494;2023-02-15T15:55:58;25.38;;;12.88;;
47896;SDS011;39629;51.400;5.494;2023-02-15T16:01:06;28.30;;;14.02;;
47896;SDS011;39629;51.400;5.494;2023-02-15T16:06:13;22.65;;;12.45;;
47896;SDS011;39629;51.400;5.494;2023-02-15T16:11:16;29.15;;;13.30;;
47896;SDS011;39629;51.400;5.494;2023-02-15T16:16:24;26.55;;;13.65;;
47896;SDS011;39629;51.400;5.494;2023-02-15T16:21:31;24.42;;;12.27;;
47896;SDS011;39629;51.400;5.494;2023-02-15T16:26:41;27.17;;;13.05;;
47896;SDS011;39629;51.400;5.494;2023-02-15T16:31:57;27.45;;;12.85;;
47896;SDS011;39629;51.400;5.494;2023-02-15T16:37:14;24.92;;;12.30;;
47896;SDS011;39629;51.400;5.494;2023-02-15T16:42:17;25.83;;;13.05;;
47896;SDS011;39629;51.400;5.494;2023-02-15T16:47:19;29.30;;;12.52;;
47896;SDS011;39629;51.400;5.494;2023-02-15T16:52:25;29.08;;;13.75;;
47896;SDS011;39629;51.400;5.494;2023-02-15T16:57:29;28.25;;;13.32;;
47896;SDS011;39629;51.400;5.494;2023-02-15T17:02:34;28.08;;;13.77;;
47896;SDS011;39629;51.400;5.494;2023-02-15T17:07:39;25.80;;;13.13;;
47896;SDS011;39629;51.400;5.494;2023-02-15T17:12:45;24.48;;;12.90;;
47896;SDS011;39629;51.400;5.494;2023-02-15T17:17:50;29.98;;;13.40;;
47896;SDS011;39629;51.400;5.494;2023-02-15T17:22:53;27.27;;;13.38;;
47896;SDS011;39629;51.400;5.494;2023-02-15T17:27:55;29.40;;;15.00;;
47896;SDS011;39629;51.400;5.494;2023-02-15T17:32:58;36.35;;;15.40;;
47896;SDS011;39629;51.400;5.494;2023-02-15T17:38:04;31.95;;;15.20;;
47896;SDS011;39629;51.400;5.494;2023-02-15T17:43:07;28.08;;;13.02;;
47896;SDS011;39629;51.400;5.494;2023-02-15T17:48:09;31.88;;;15.57;;
47896;SDS011;39629;51.400;5.494;2023-02-15T17:53:19;32.03;;;15.13;;
47896;SDS011;39629;51.400;5.494;2023-02-15T17:58:20;34.70;;;17.60;;
47896;SDS011;39629;51.400;5.494;2023-02-15T18:03:23;34.72;;;15.77;;
47896;SDS011;39629;51.400;5.494;2023-02-15T18:08:44;32.58;;;15.75;;
47896;SDS011;39629;51.400;5.494;2023-02-15T18:14:03;38.60;;;17.40;;
47896;SDS011;39629;51.400;5.494;2023-02-15T18:19:08;35.40;;;16.08;;
47896;SDS011;39629;51.400;5.494;2023-02-15T18:24:18;35.78;;;16.75;;
47896;SDS011;39629;51.400;5.494;2023-02-15T18:29:21;30.38;;;14.95;;
47896;SDS011;39629;51.400;5.494;2023-02-15T18:34:24;34.00;;;16.00;;
47896;SDS011;39629;51.400;5.494;2023-02-15T18:39:32;37.20;;;16.23;;
47896;SDS011;39629;51.400;5.494;2023-02-15T18:44:37;30.58;;;14.98;;
47896;SDS011;39629;51.400;5.494;2023-02-15T18:49:38;34.20;;;15.23;;
47896;SDS011;39629;51.400;5.494;2023-02-15T18:54:41;38.63;;;17.40;;
47896;SDS011;39629;51.400;5.494;2023-02-15T18:59:44;55.20;;;23.95;;
47896;SDS011;39629;51.400;5.494;2023-02-15T19:04:45;35.05;;;16.77;;
47896;SDS011;39629;51.400;5.494;2023-02-15T19:09:49;37.90;;;18.08;;
47896;SDS011;39629;51.400;5.494;2023-02-15T19:14:54;39.22;;;17.42;;
47896;SDS011;39629;51.400;5.494;2023-02-15T19:19:56;42.17;;;17.77;;
47896;SDS011;39629;51.400;5.494;2023-02-15T19:25:00;40.40;;;18.98;;
47896;SDS011;39629;51.400;5.494;2023-02-15T19:30:04;39.92;;;18.15;;
47896;SDS011;39629;51.400;5.494;2023-02-15T19:35:14;38.67;;;17.00;;
47896;SDS011;39629;51.400;5.494;2023-02-15T19:40:21;31.90;;;14.20;;
47896;SDS011;39629;51.400;5.494;2023-02-15T19:45:26;38.40;;;16.90;;
47896;SDS011;39629;51.400;5.494;2023-02-15T19:50:29;36.83;;;16.98;;
47896;SDS011;39629;51.400;5.494;2023-02-15T19:55:34;41.17;;;17.93;;
47896;SDS011;39629;51.400;5.494;2023-02-15T20:00:36;35.50;;;16.90;;
47896;SDS011;39629;51.400;5.494;2023-02-15T20:05:38;40.72;;;18.65;;
47896;SDS011;39629;51.400;5.494;2023-02-15T20:10:42;39.47;;;18.70;;
47896;SDS011;39629;51.400;5.494;2023-02-15T20:15:45;41.58;;;17.70;;
47896;SDS011;39629;51.400;5.494;2023-02-15T20:20:48;38.22;;;16.02;;
47896;SDS011;39629;51.400;5.494;2023-02-15T20:25:53;42.63;;;20.15;;
47896;SDS011;39629;51.400;5.494;2023-02-15T20:30:57;45.25;;;18.90;;
47896;SDS011;39629;51.400;5.494;2023-02-15T20:35:59;37.58;;;17.55;;
47896;SDS011;39629;51.400;5.494;2023-02-15T20:41:02;48.08;;;20.33;;
47896;SDS011;39629;51.400;5.494;2023-02-15T20:46:21;46.40;;;19.75;;
47896;SDS011;39629;51.400;5.494;2023-02-15T20:51:23;44.83;;;19.98;;
47896;SDS011;39629;51.400;5.494;2023-02-15T20:56:26;45.05;;;20.67;;
47896;SDS011;39629;51.400;5.494;2023-02-15T21:01:27;45.90;;;19.23;;
47896;SDS011;39629;51.400;5.494;2023-02-15T21:06:29;45.47;;;19.30;;
47896;SDS011;39629;51.400;5.494;2023-02-15T21:11:32;44.58;;;18.73;;
47896;SDS011;39629;51.400;5.494;2023-02-15T21:16:33;48.55;;;20.27;;
47896;SDS011;39629;51.400;5.494;2023-02-15T21:21:35;48.13;;;20.58;;
47896;SDS011;39629;51.400;5.494;2023-02-15T21:26:38;46.75;;;19.83;;
47896;SDS011;39629;51.400;5.494;2023-02-15T21:31:43;42.70;;;18.85;;
47896;SDS011;39629;51.400;5.494;2023-02-15T21:36:46;42.58;;;19.95;;
47896;SDS011;39629;51.400;5.494;2023-02-15T21:41:51;45.75;;;19.52;;
47896;SDS011;39629;51.400;5.494;2023-02-15T21:47:16;42.58;;;18.90;;
47896;SDS011;39629;51.400;5.494;2023-02-15T21:52:36;40.40;;;18.88;;
47896;SDS011;39629;51.400;5.494;2023-02-15T21:57:39;43.80;;;18.55;;
47896;SDS011;39629;51.400;5.494;2023-02-15T22:02:41;39.75;;;17.83;;
47896;SDS011;39629;51.400;5.494;2023-02-15T22:07:44;43.78;;;18.85;;
47896;SDS011;39629;51.400;5.494;2023-02-15T22:12:48;40.30;;;17.55;;
47896;SDS011;39629;51.400;5.494;2023-02-15T22:17:50;41.78;;;18.65;;
47896;SDS011;39629;51.400;5.494;2023-02-15T22:22:52;39.85;;;18.10;;
47896;SDS011;39629;51.400;5.494;2023-02-15T22:27:56;47.70;;;19.85;;
47896;SDS011;39629;51.400;5.494;2023-02-15T22:32:57;39.53;;;18.40;;
47896;SDS011;39629;51.400;5.494;2023-02-15T22:38:00;40.90;;;18.27;;
47896;SDS011;39629;51.400;5.494;2023-02-15T22:43:03;41.60;;;17.98;;
47896;SDS011;39629;51.400;5.494;2023-02-15T22:48:07;42.75;;;18.70;;
47896;SDS011;39629;51.400;5.494;2023-02-15T22:53:11;42.28;;;18.33;;
47896;SDS011;39629;51.400;5.494;2023-02-15T22:58:15;42.67;;;19.05;;
47896;SDS011;39629;51.400;5.494;2023-02-15T23:03:19;41.33;;;18.48;;
47896;SDS011;39629;51.400;5.494;2023-02-15T23:08:23;39.00;;;17.52;;
47896;SDS011;39629;51.400;5.494;2023-02-15T23:13:28;43.38;;;18.80;;
47896;SDS011;39629;51.400;5.494;2023-02-15T23:18:32;42.60;;;17.70;;
47896;SDS011;39629;51.400;5.494;2023-02-15T23:23:35;42.73;;;18.17;;
47896;SDS011;39629;51.400;5.494;2023-02-15T23:28:40;41.17;;;18.10;;
47896;SDS011;39629;51.400;5.494;2023-02-15T23:33:42;42.65;;;18.95;;
47896;SDS011;39629;51.400;5.494;2023-02-15T23:38:44;43.13;;;18.88;;
47896;SDS011;39629;51.400;5.494;2023-02-15T23:43:48;44.92;;;19.45;;
47896;SDS011;39629;51.400;5.494;2023-02-15T23:48:52;44.65;;;19.52;;
47896;SDS011;39629;51.400;5.494;2023-02-15T23:53:55;44.58;;;19.90;;
47896;SDS011;39629;51.400;5.494;2023-02-15T23:58:58;43.95;;;19.00;;
